< < Back
Terminal Aerodrome Forecast


Current Version              Previous Versions:   1  2  3  4  5  6  7  8  9  

Terminal Aerodrome Forecast

772
FTUS42 KMLB 011100
TAFMCO
TAF
KMCO 011132Z 0112/0212 VRB03KT P6SM FEW040 SCT250
     FM011500 15012KT P6SM SCT040
     FM020000 16006KT P6SM FEW040 BKN200
     FM020900 18007KT P6SM SCT020 BKN120 WS010/20032KT=

Latest METAR

354
SAUS70 KWBC 011900 RRX
MTRMCO
METAR KMCO 011853Z 17010KT 10SM FEW055 FEW300 23/10 A3015 RMK AO2 SLP206
T02330100


USA.gov is the U.S. government's official web portal to all federal, state and local government web resources and services.